Highland, Michigan
Current Conditions -  °F | °C
As of 4:53 PM on Friday 31 Oct 2014 (Local Time) from KPTK Reporting Station
Light Rain Light Rain  
Wind Chill: 27°   Ceiling: 1000
Heat Index: 36°   Visibility: 7mi
Dew Point: 32°   Wind: 15mph
Humidity: 86%   Direction: 360°N
Pressure: 29.94"   Gusts: 29mph
Location:  42.63°N, 83.61°W
Report Text: KPTK 312053Z 36013G25KT 7SM -RA BKN010 OVC013 02/00 A2994 RMK AO2 SNB22E49 SLP146 P0003 60017 T00220000 53022
Loading
Personal Weather Stations






























Interactive Weather Map
Tropical Storm Tracking
New forecast layout! Learn more

10-Day Weather Forecast

Advertisements
Track Severe Weather on mobile